Stewart International Airport
KSWF : now visible

Airfield :











YOU CAN JOIN US ON...

 
LOGIN :

Register | Disclaimer

   EN    FR    IT 

 









Legend :    VFR   Marginal VFR   IFR   Intensive IFR   Very Intensive IFR
Visi :
Ceiling :
>= 8 km
>= 3000ft
5 to 8 km
1000 to 3000 ft
1500m to 5 km
500 to 1000 ft
800 to 1500m
200 to 500 ft
< 800m
< 200 ft
Symbols :   Thunderstorms  Fog  Heavy snow  Heavy precipitations  Wind > 20 kt






- Airport Elevation : 491 ft
- IATA code : SWF


KSWF - Stewart International

CURRENT METAR :
  • 070045Z 30010KT 10SM SKC 12/M06 A2996

EXPIRED METARs :
  • 062345Z 30012KT 10SM SKC 14/M06 A2994
  • 062245Z 31012G22KT 10SM SKC 16/M06 A2994

TAF KSWF
Valid from the 07 at 00:00 until the 08 at 06:00 UTC


062340Z 0700/0806 30007KT P6SM FEW250
FM070300 VRB03KT P6SM SKC
FM071700 27006KT P6SM BKN120
FM072100 23006KT P6SM SCT060 SCT100
FM080200 VRB02KT P6SM OVC050
PROB30 0802/0806 5SM -RA OVC030 AMD NOT SKED



MET'MAP, your aeronautical weather chart ! - Copyright ORBIFLY December 2007 - Disclaimer

ORBIFLY MET'MAP TEAM :

Programming & Development : Alexandra Zaïnal
Concept & original design : Baudouin d'Aumeries
Assistance for programming : Marc-Olivier Méhu
Technical & hardware support : Manuel Goepfert

Contact : metmap@orbifly.com




SOURCES & CREDITS :

   NOAA       Earth
Advisory